createdAt,value
2023-03-21T00:01:53.540Z,7.40
2023-03-21T00:04:23.126Z,7.40
2023-03-21T00:06:50.744Z,7.40
2023-03-21T00:09:17.990Z,7.40
2023-03-21T00:11:45.643Z,7.40
2023-03-21T00:14:15.063Z,7.40
2023-03-21T00:16:45.640Z,7.40
2023-03-21T00:19:14.485Z,7.40
2023-03-21T00:22:05.800Z,7.40
2023-03-21T00:24:30.145Z,7.40
2023-03-21T00:27:06.006Z,7.40
2023-03-21T00:29:43.248Z,7.40
2023-03-21T00:32:10.351Z,7.40
2023-03-21T00:34:43.347Z,7.40
2023-03-21T00:37:21.600Z,7.50
2023-03-21T00:39:49.336Z,7.50
2023-03-21T00:42:17.062Z,7.50
2023-03-21T00:44:44.879Z,7.50
2023-03-21T00:47:13.243Z,7.50
2023-03-21T00:49:40.615Z,7.50
2023-03-21T00:52:24.822Z,7.40
2023-03-21T00:54:58.502Z,7.40
2023-03-21T00:57:38.128Z,7.50
2023-03-21T01:00:10.669Z,7.50
2023-03-21T01:02:43.494Z,7.50
2023-03-21T01:05:12.294Z,7.50
2023-03-21T01:07:39.437Z,7.50
2023-03-21T01:10:07.253Z,7.50
2023-03-21T01:12:34.485Z,7.50
2023-03-21T01:15:03.902Z,7.50
2023-03-21T01:17:31.042Z,7.50
2023-03-21T01:19:58.372Z,7.40
2023-03-21T01:22:25.677Z,7.50
2023-03-21T01:24:58.473Z,7.50
2023-03-21T01:27:30.424Z,7.50
2023-03-21T01:29:57.807Z,7.50
2023-03-21T01:32:25.814Z,7.40
2023-03-21T01:34:53.055Z,7.40
2023-03-21T01:37:22.843Z,7.40
2023-03-21T01:39:51.284Z,7.50
2023-03-21T01:42:19.786Z,7.40
2023-03-21T01:45:27.291Z,7.40
2023-03-21T01:47:54.697Z,7.40
2023-03-21T01:50:32.444Z,7.40
2023-03-21T01:53:06.489Z,7.40
2023-03-21T01:55:36.593Z,7.40
2023-03-21T01:58:12.663Z,7.40
2023-03-21T02:01:04.815Z,7.40
2023-03-21T02:03:52.321Z,7.40
2023-03-21T02:06:38.674Z,7.40
2023-03-21T02:09:20.310Z,7.40
2023-03-21T02:11:48.003Z,7.40
2023-03-21T02:14:28.262Z,7.40
2023-03-21T02:17:39.189Z,7.40
2023-03-21T02:20:49.530Z,7.40
2023-03-21T02:23:57.563Z,7.40
2023-03-21T02:26:41.867Z,7.40
2023-03-21T02:29:32.702Z,7.40
2023-03-21T02:32:20.456Z,7.40
2023-03-21T02:35:19.951Z,7.40
2023-03-21T02:38:04.580Z,7.40
2023-03-21T02:40:45.745Z,7.40
2023-03-21T02:43:29.466Z,7.30
2023-03-21T02:46:15.126Z,7.40
2023-03-21T02:48:59.344Z,7.30
2023-03-21T02:51:30.646Z,7.30
2023-03-21T02:54:28.213Z,7.40
2023-03-21T02:57:01.012Z,7.30
2023-03-21T02:59:30.408Z,7.30
2023-03-21T03:02:00.752Z,7.30
2023-03-21T03:04:28.860Z,7.30
2023-03-21T03:06:59.011Z,7.30
2023-03-21T03:10:12.425Z,7.30
2023-03-21T03:13:20.049Z,7.30
2023-03-21T03:16:31.078Z,7.30
2023-03-21T03:19:01.466Z,7.40
2023-03-21T03:21:42.229Z,7.30
2023-03-21T03:24:22.874Z,7.30
2023-03-21T03:26:58.117Z,7.30
2023-03-21T03:29:30.683Z,7.30
2023-03-21T03:32:04.232Z,7.30
2023-03-21T03:34:40.780Z,7.30
2023-03-21T03:37:14.880Z,7.30
2023-03-21T03:40:08.265Z,7.30
2023-03-21T03:42:49.892Z,7.20
2023-03-21T03:45:37.831Z,7.20
2023-03-21T03:48:35.608Z,7.20
2023-03-21T03:51:26.119Z,7.20
2023-03-21T03:54:15.617Z,7.20
2023-03-21T03:56:44.148Z,7.20
2023-03-21T03:59:27.255Z,7.20
2023-03-21T04:02:17.453Z,7.30
2023-03-21T04:04:44.851Z,7.20
2023-03-21T04:07:12.248Z,7.20
2023-03-21T04:09:44.445Z,7.20
2023-03-21T04:12:15.681Z,7.20
2023-03-21T04:14:56.967Z,7.30
2023-03-21T04:17:29.601Z,7.20
2023-03-21T04:20:05.419Z,7.20
2023-03-21T04:22:38.062Z,7.20
2023-03-21T04:25:06.495Z,7.20
2023-03-21T04:28:13.528Z,7.20
2023-03-21T04:31:26.458Z,7.20
2023-03-21T04:34:09.911Z,7.20
2023-03-21T04:36:42.988Z,7.20
2023-03-21T04:39:30.362Z,7.20
2023-03-21T04:42:18.780Z,7.20
2023-03-21T04:44:49.428Z,7.20
2023-03-21T04:47:20.252Z,7.20
2023-03-21T04:49:51.678Z,7.20
2023-03-21T04:52:19.779Z,7.20
2023-03-21T04:54:47.561Z,7.20
2023-03-21T04:57:14.851Z,7.20
2023-03-21T04:59:42.762Z,7.20
2023-03-21T05:02:10.038Z,7.20
2023-03-21T05:04:37.162Z,7.20
2023-03-21T05:07:04.414Z,7.30
2023-03-21T05:09:32.275Z,5.90
2023-03-21T05:11:59.845Z,7.20
2023-03-21T05:14:29.895Z,7.30
2023-03-21T05:17:01.739Z,7.20
2023-03-21T05:19:35.307Z,7.20
2023-03-21T05:22:08.235Z,7.20
2023-03-21T05:24:39.264Z,7.20
2023-03-21T05:27:08.735Z,7.20
2023-03-21T05:29:41.877Z,7.20
2023-03-21T05:32:10.599Z,7.20
2023-03-21T05:34:57.756Z,7.10
2023-03-21T05:37:25.260Z,7.10
2023-03-21T05:39:52.795Z,7.10
2023-03-21T05:42:27.015Z,7.10
2023-03-21T05:44:55.215Z,7.10
2023-03-21T05:47:27.980Z,7.10
2023-03-21T05:49:57.201Z,7.10
2023-03-21T05:52:25.289Z,7.10
2023-03-21T05:54:52.542Z,7.10
2023-03-21T05:57:23.049Z,7.10
2023-03-21T05:59:57.759Z,7.10
2023-03-21T06:02:24.986Z,7.20
2023-03-21T06:04:53.491Z,7.30
2023-03-21T06:07:21.930Z,7.30
2023-03-21T06:09:50.453Z,7.30
2023-03-21T06:12:17.704Z,7.30
2023-03-21T06:14:59.574Z,7.30
2023-03-21T06:17:32.984Z,7.30
2023-03-21T06:20:06.902Z,7.40
2023-03-21T06:22:40.316Z,7.40
2023-03-21T06:25:08.722Z,7.40
2023-03-21T06:27:37.136Z,7.40
2023-03-21T06:30:07.410Z,7.40
2023-03-21T06:32:41.142Z,7.40
2023-03-21T06:35:12.978Z,7.40
2023-03-21T06:38:00.307Z,7.40
2023-03-21T06:40:31.970Z,7.40
2023-03-21T06:42:59.406Z,7.40
2023-03-21T06:45:26.578Z,7.50
2023-03-21T06:48:13.755Z,7.40
2023-03-21T06:50:50.985Z,7.40
2023-03-21T06:53:24.943Z,7.40
2023-03-21T06:56:15.428Z,7.40
2023-03-21T06:58:58.864Z,7.40
2023-03-21T07:01:50.751Z,7.40
2023-03-21T07:04:37.955Z,7.50
2023-03-21T07:07:29.092Z,7.50
2023-03-21T07:09:56.558Z,7.60
2023-03-21T07:12:25.003Z,7.60
2023-03-21T07:15:08.226Z,7.60
2023-03-21T07:17:56.783Z,7.70
2023-03-21T07:20:24.172Z,7.70
2023-03-21T07:22:51.540Z,7.80
2023-03-21T07:25:20.150Z,7.80
2023-03-21T07:27:48.201Z,7.70
2023-03-21T07:30:16.500Z,7.70
2023-03-21T07:32:45.677Z,7.60
2023-03-21T07:35:16.938Z,7.60
2023-03-21T07:37:44.098Z,7.60
2023-03-21T07:40:15.530Z,7.60
2023-03-21T07:42:43.309Z,7.70
2023-03-21T07:45:16.517Z,7.70
2023-03-21T07:47:45.986Z,7.70
2023-03-21T07:50:14.346Z,7.70
2023-03-21T07:52:42.121Z,7.80
2023-03-21T07:55:09.872Z,7.70
2023-03-21T07:57:37.552Z,7.70
2023-03-21T08:00:07.044Z,7.70
2023-03-21T08:02:40.238Z,7.70
2023-03-21T08:05:08.152Z,7.70
2023-03-21T08:07:35.345Z,7.70
2023-03-21T08:10:02.950Z,7.80
2023-03-21T08:12:30.453Z,7.70
2023-03-21T08:15:00.617Z,7.80
2023-03-21T08:17:28.469Z,7.90
2023-03-21T08:19:56.074Z,7.80
2023-03-21T08:22:23.423Z,7.80
2023-03-21T08:24:50.689Z,7.70
2023-03-21T08:27:17.830Z,7.80
2023-03-21T08:30:03.847Z,7.90
2023-03-21T08:32:31.280Z,7.90
2023-03-21T08:35:00.828Z,7.90
2023-03-21T08:37:28.598Z,7.90
2023-03-21T08:39:55.940Z,7.90
2023-03-21T08:42:28.302Z,8.00
2023-03-21T08:44:55.674Z,8.00
2023-03-21T08:47:22.995Z,8.00
2023-03-21T08:49:50.369Z,8.00
2023-03-21T08:52:17.751Z,8.00
2023-03-21T08:54:45.461Z,8.10
2023-03-21T08:57:12.883Z,8.00
2023-03-21T08:59:40.421Z,8.10
2023-03-21T09:02:07.833Z,8.10
2023-03-21T09:04:35.068Z,8.10
2023-03-21T09:07:05.296Z,8.10
2023-03-21T09:09:32.695Z,8.10
2023-03-21T09:11:59.994Z,8.20
2023-03-21T09:14:29.182Z,8.30
2023-03-21T09:16:56.954Z,8.30
2023-03-21T09:19:24.325Z,8.40
2023-03-21T09:21:53.219Z,8.30
2023-03-21T09:24:20.805Z,8.40
2023-03-21T09:26:50.944Z,8.40
2023-03-21T09:29:23.319Z,8.50
2023-03-21T09:31:53.447Z,8.60
2023-03-21T09:34:20.965Z,8.70
2023-03-21T09:36:52.074Z,8.80
2023-03-21T09:39:20.748Z,8.90
2023-03-21T09:42:17.807Z,9.00
2023-03-21T09:45:01.777Z,9.20
2023-03-21T09:47:49.824Z,9.30
2023-03-21T09:50:35.361Z,9.40
2023-03-21T09:53:06.008Z,9.40
2023-03-21T09:55:37.893Z,9.40
2023-03-21T09:58:09.560Z,9.40
2023-03-21T10:00:43.506Z,9.50
2023-03-21T10:03:26.370Z,9.60
2023-03-21T10:05:58.596Z,9.70
2023-03-21T10:08:37.497Z,9.70
2023-03-21T10:11:14.573Z,9.60
2023-03-21T10:13:50.989Z,9.60
2023-03-21T10:16:44.251Z,9.50
2023-03-21T10:19:18.701Z,9.40
2023-03-21T10:22:06.971Z,9.50
2023-03-21T10:24:35.373Z,9.60
2023-03-21T10:27:04.805Z,9.60
2023-03-21T10:29:53.362Z,9.60
2023-03-21T10:32:23.111Z,9.60
2023-03-21T10:37:28.332Z,9.50
2023-03-21T10:39:56.262Z,9.50
2023-03-21T10:42:28.174Z,9.50
2023-03-21T10:44:58.339Z,9.60
2023-03-21T10:47:31.237Z,10.00
2023-03-21T10:50:08.069Z,9.70
2023-03-21T10:52:43.346Z,9.70
2023-03-21T10:55:25.955Z,9.70
2023-03-21T10:58:03.178Z,9.70
2023-03-21T11:00:38.471Z,9.70
2023-03-21T11:03:06.949Z,9.80
2023-03-21T11:05:42.175Z,9.70
2023-03-21T11:08:16.459Z,9.80
2023-03-21T11:10:58.918Z,9.80
2023-03-21T11:13:40.257Z,9.90
2023-03-21T11:16:36.104Z,10.00
2023-03-21T11:19:18.844Z,9.90
2023-03-21T11:21:46.739Z,10.00
2023-03-21T11:24:18.095Z,10.00
2023-03-21T11:26:49.734Z,10.00
2023-03-21T11:29:29.762Z,10.10
2023-03-21T11:32:30.568Z,10.10
2023-03-21T11:35:02.260Z,10.10
2023-03-21T11:37:39.398Z,10.10
2023-03-21T11:40:29.348Z,10.20
2023-03-21T11:43:17.170Z,10.20
2023-03-21T11:46:03.273Z,10.20
2023-03-21T11:48:34.818Z,10.10
2023-03-21T11:51:14.868Z,10.10
2023-03-21T11:54:04.358Z,10.20
2023-03-21T11:56:56.072Z,10.20
2023-03-21T11:59:35.447Z,10.20
2023-03-21T12:02:23.355Z,10.20
2023-03-21T12:05:21.563Z,10.20
2023-03-21T12:08:06.397Z,10.30
2023-03-21T12:10:46.775Z,10.30
2023-03-21T12:13:48.621Z,10.40
2023-03-21T12:16:24.624Z,10.40
2023-03-21T12:19:17.400Z,10.40
2023-03-21T12:22:11.977Z,10.40
2023-03-21T12:24:57.084Z,10.40
2023-03-21T12:27:48.737Z,10.40
2023-03-21T12:30:34.610Z,10.50
2023-03-21T12:33:26.025Z,10.50
2023-03-21T12:36:04.050Z,10.50
2023-03-21T12:39:14.301Z,10.40
2023-03-21T12:41:54.606Z,10.40
2023-03-21T12:44:26.334Z,10.40
2023-03-21T12:47:13.797Z,10.30
2023-03-21T12:50:01.462Z,10.30
2023-03-21T12:52:45.931Z,10.20
2023-03-21T12:55:34.456Z,10.20
2023-03-21T12:58:12.207Z,10.30
2023-03-21T13:00:45.627Z,10.30
2023-03-21T13:03:40.371Z,10.30
2023-03-21T13:06:13.399Z,10.30
2023-03-21T13:08:59.880Z,10.30
2023-03-21T13:11:31.110Z,10.20
2023-03-21T13:14:26.401Z,9.70
2023-03-21T13:17:13.301Z,10.10
2023-03-21T13:19:51.456Z,10.10
2023-03-21T13:22:31.130Z,10.10
2023-03-21T13:25:28.299Z,10.10
2023-03-21T13:28:03.524Z,10.10
2023-03-21T13:30:32.655Z,10.20
2023-03-21T13:33:07.427Z,10.30
2023-03-21T13:35:42.979Z,10.30
2023-03-21T13:38:27.289Z,10.50
2023-03-21T13:41:09.004Z,10.30
2023-03-21T13:43:54.057Z,10.20
2023-03-21T13:46:34.124Z,10.10
2023-03-21T13:49:08.645Z,10.10
2023-03-21T13:51:53.248Z,10.10
2023-03-21T13:54:40.474Z,10.50
2023-03-21T13:57:41.290Z,10.30
2023-03-21T14:00:39.952Z,10.30
2023-03-21T14:03:10.538Z,10.30
2023-03-21T14:05:42.563Z,10.30
2023-03-21T14:08:24.818Z,10.30
2023-03-21T14:11:04.926Z,10.30
2023-03-21T14:13:35.091Z,10.30
2023-03-21T14:16:14.242Z,10.40
2023-03-21T14:18:55.821Z,10.40
2023-03-21T14:21:28.090Z,10.60
2023-03-21T14:23:58.371Z,10.50
2023-03-21T14:26:30.641Z,10.60
2023-03-21T14:28:58.995Z,10.60
2023-03-21T14:31:27.108Z,10.70
2023-03-21T14:33:58.741Z,10.60
2023-03-21T14:36:30.637Z,10.60
2023-03-21T14:39:07.424Z,10.60
2023-03-21T14:41:49.300Z,10.60
2023-03-21T14:44:25.311Z,10.70
2023-03-21T14:47:08.442Z,10.80
2023-03-21T14:49:37.824Z,10.90
2023-03-21T14:52:12.171Z,10.70
2023-03-21T14:54:41.790Z,10.70
2023-03-21T14:57:15.017Z,10.60
2023-03-21T14:59:42.844Z,10.60
2023-03-21T15:02:35.481Z,10.50
2023-03-21T15:05:37.480Z,10.40
2023-03-21T15:08:19.185Z,10.40
2023-03-21T15:11:07.256Z,10.40
2023-03-21T15:13:52.424Z,10.40
2023-03-21T15:16:20.713Z,10.40
2023-03-21T15:18:48.835Z,10.40
2023-03-21T15:21:27.856Z,10.40
2023-03-21T15:24:14.709Z,10.40
2023-03-21T15:26:47.024Z,10.40
2023-03-21T15:29:16.312Z,10.30
2023-03-21T15:31:47.364Z,10.30
2023-03-21T15:34:28.417Z,10.30
2023-03-21T15:37:09.197Z,10.20
2023-03-21T15:39:36.757Z,10.30
2023-03-21T15:42:23.087Z,10.30
2023-03-21T15:44:55.143Z,10.30
2023-03-21T15:48:02.993Z,10.30
2023-03-21T15:50:38.433Z,10.30
2023-03-21T15:53:14.493Z,10.30
2023-03-21T15:55:53.932Z,10.30
2023-03-21T15:58:25.222Z,10.30
2023-03-21T16:00:57.475Z,10.30
2023-03-21T16:03:27.663Z,10.30
2023-03-21T16:06:14.360Z,10.30
2023-03-21T16:08:51.803Z,10.20
2023-03-21T16:11:28.428Z,10.10
2023-03-21T16:13:56.935Z,10.10
2023-03-21T16:16:29.355Z,10.00
2023-03-21T16:18:59.452Z,10.00
2023-03-21T16:21:30.747Z,10.00
2023-03-21T16:23:58.374Z,9.90
2023-03-21T16:26:32.716Z,9.90
2023-03-21T16:29:00.506Z,9.90
2023-03-21T16:31:32.270Z,9.90
2023-03-21T16:33:59.659Z,9.90
2023-03-21T16:36:30.993Z,9.90
2023-03-21T16:38:58.526Z,9.80
2023-03-21T16:41:28.092Z,9.80
2023-03-21T16:43:55.381Z,9.80
2023-03-21T16:46:27.312Z,9.80
2023-03-21T16:48:56.879Z,9.80
2023-03-21T16:51:35.731Z,9.80
2023-03-21T16:54:03.372Z,9.80
2023-03-21T16:56:39.308Z,9.80
2023-03-21T16:59:07.942Z,9.80
2023-03-21T17:01:38.419Z,9.70
2023-03-21T17:04:05.850Z,9.70
2023-03-21T17:06:33.302Z,9.70
2023-03-21T17:09:01.617Z,9.70
2023-03-21T17:11:32.822Z,9.70
2023-03-21T17:14:00.065Z,9.70
2023-03-21T17:16:27.564Z,9.70
2023-03-21T17:18:55.539Z,9.70
2023-03-21T17:21:25.946Z,9.70
2023-03-21T17:23:53.661Z,9.60
2023-03-21T17:26:25.836Z,9.70
2023-03-21T17:28:55.378Z,9.60
2023-03-21T17:31:25.375Z,9.60
2023-03-21T17:33:52.609Z,9.60
2023-03-21T17:36:24.212Z,9.60
2023-03-21T17:38:54.220Z,9.60
2023-03-21T17:41:22.670Z,9.60
2023-03-21T17:43:50.975Z,9.60
2023-03-21T17:46:23.718Z,9.60
2023-03-21T17:48:51.520Z,9.60
2023-03-21T17:51:19.210Z,9.60
2023-03-21T17:53:49.315Z,9.60
2023-03-21T17:56:26.103Z,9.50
2023-03-21T17:58:55.955Z,9.60
2023-03-21T18:01:23.325Z,9.50
2023-03-21T18:03:51.289Z,9.60
2023-03-21T18:06:21.626Z,9.50
2023-03-21T18:08:49.499Z,9.50
2023-03-21T18:11:18.202Z,9.50
2023-03-21T18:13:46.104Z,9.50
2023-03-21T18:16:17.903Z,9.50
2023-03-21T18:18:46.533Z,9.60
2023-03-21T18:21:18.972Z,9.50
2023-03-21T18:23:47.677Z,9.50
2023-03-21T18:26:19.025Z,9.50
2023-03-21T18:29:15.068Z,9.50
2023-03-21T18:31:35.000Z,9.40
2023-03-21T18:34:02.230Z,9.40
2023-03-21T18:36:29.488Z,9.40
2023-03-21T18:38:56.985Z,9.40
2023-03-21T18:41:24.099Z,9.40
2023-03-21T18:44:17.487Z,9.40
2023-03-21T18:46:46.961Z,9.40
2023-03-21T18:49:57.326Z,9.40
2023-03-21T18:52:02.944Z,9.40
2023-03-21T18:54:30.341Z,9.40
2023-03-21T18:59:45.730Z,9.40
2023-03-21T19:02:15.358Z,9.30
2023-03-21T19:04:43.299Z,9.30
2023-03-21T19:07:10.734Z,9.30
2023-03-21T19:12:26.805Z,9.30
2023-03-21T19:14:54.574Z,9.30
2023-03-21T19:20:09.902Z,9.30
2023-03-21T19:22:36.977Z,9.30
2023-03-21T19:25:05.665Z,9.20
2023-03-21T19:27:35.056Z,9.20
2023-03-21T19:30:13.801Z,9.20
2023-03-21T19:32:41.796Z,9.20
2023-03-21T19:35:09.433Z,9.20
2023-03-21T19:37:36.718Z,9.10
2023-03-21T19:40:06.929Z,9.20
2023-03-21T19:42:36.230Z,9.20
2023-03-21T19:45:05.499Z,9.20
2023-03-21T19:47:33.397Z,9.10
2023-03-21T19:50:47.399Z,9.10
2023-03-21T19:52:47.860Z,9.10
2023-03-21T19:55:15.493Z,9.10
2023-03-21T19:57:42.676Z,9.10
2023-03-21T20:00:11.470Z,9.00
2023-03-21T20:02:39.377Z,9.00
2023-03-21T20:05:08.390Z,9.00
2023-03-21T20:07:36.130Z,8.90
2023-03-21T20:10:05.194Z,8.90
2023-03-21T20:12:33.326Z,8.90
2023-03-21T20:15:16.111Z,8.90
2023-03-21T20:17:44.904Z,8.80
2023-03-21T20:20:17.773Z,8.80
2023-03-21T20:23:11.020Z,8.80
2023-03-21T20:25:44.896Z,8.80
2023-03-21T20:28:16.858Z,8.80
2023-03-21T20:30:58.208Z,8.80
2023-03-21T20:33:25.499Z,8.70
2023-03-21T20:38:54.402Z,8.70
2023-03-21T20:41:21.603Z,8.70
2023-03-21T20:46:37.682Z,8.70
2023-03-21T20:49:06.744Z,8.60
2023-03-21T20:54:21.450Z,8.60
2023-03-21T20:56:49.081Z,8.50
2023-03-21T20:59:25.679Z,8.50
2023-03-21T21:01:57.820Z,8.50
2023-03-21T21:04:44.876Z,8.40
2023-03-21T21:07:17.952Z,8.40
2023-03-21T21:09:46.196Z,8.30
2023-03-21T21:12:15.165Z,8.40
2023-03-21T21:14:43.887Z,8.40
2023-03-21T21:18:01.609Z,8.30
2023-03-21T21:20:01.856Z,8.30
2023-03-21T21:22:29.370Z,8.30
2023-03-21T21:24:57.085Z,8.30
2023-03-21T21:27:25.069Z,8.20
2023-03-21T21:29:52.310Z,8.20
2023-03-21T21:32:19.852Z,8.20
2023-03-21T21:34:48.018Z,8.10
2023-03-21T21:37:15.306Z,8.10
2023-03-21T21:39:42.696Z,8.10
2023-03-21T21:42:09.961Z,8.10
2023-03-21T21:44:37.627Z,8.10
2023-03-21T21:47:08.579Z,8.10
2023-03-21T21:49:36.617Z,8.10
2023-03-21T21:52:06.045Z,8.10
2023-03-21T21:54:36.873Z,8.10
2023-03-21T21:57:05.707Z,8.20
2023-03-21T21:59:33.936Z,8.10
2023-03-21T22:02:01.754Z,8.20
2023-03-21T22:04:29.081Z,8.10
2023-03-21T22:06:56.267Z,8.10
2023-03-21T22:09:23.641Z,8.10
2023-03-21T22:11:50.899Z,8.10
2023-03-21T22:14:18.136Z,8.10
2023-03-21T22:16:46.743Z,8.10
2023-03-21T22:19:13.988Z,8.10
2023-03-21T22:21:41.204Z,8.10
2023-03-21T22:24:08.370Z,8.10
2023-03-21T22:26:35.650Z,8.00
2023-03-21T22:29:02.943Z,8.00
2023-03-21T22:31:30.448Z,8.10
2023-03-21T22:33:57.553Z,8.10
2023-03-21T22:36:24.991Z,8.10
2023-03-21T22:38:52.102Z,8.10
2023-03-21T22:41:19.306Z,8.10
2023-03-21T22:43:46.502Z,8.10
2023-03-21T22:46:13.644Z,8.10
2023-03-21T22:48:41.580Z,8.10
2023-03-21T22:51:08.997Z,8.10
2023-03-21T22:53:36.468Z,8.20
2023-03-21T22:56:03.679Z,8.20
2023-03-21T22:58:30.919Z,8.20
2023-03-21T23:01:02.216Z,8.30
2023-03-21T23:03:29.473Z,8.30
2023-03-21T23:06:01.263Z,8.30
2023-03-21T23:08:28.893Z,8.40
2023-03-21T23:10:56.481Z,8.40
2023-03-21T23:13:23.798Z,8.40
2023-03-21T23:15:51.087Z,8.40
2023-03-21T23:18:18.280Z,8.50
2023-03-21T23:20:49.278Z,8.50
2023-03-21T23:23:16.662Z,8.70
2023-03-21T23:25:44.015Z,8.50
2023-03-21T23:28:11.121Z,8.60
2023-03-21T23:30:39.188Z,8.60
2023-03-21T23:33:06.570Z,8.70
2023-03-21T23:35:35.826Z,8.60
2023-03-21T23:38:03.147Z,8.70
2023-03-21T23:40:30.681Z,8.70
2023-03-21T23:42:59.588Z,8.70
2023-03-21T23:45:27.211Z,8.70
2023-03-21T23:47:54.455Z,8.70
2023-03-21T23:50:21.634Z,8.70
2023-03-21T23:52:48.799Z,8.70
2023-03-21T23:55:16.011Z,8.80
2023-03-21T23:57:43.881Z,8.80
